createdAt,value
2019-03-23T00:00:32.787Z,22.47
2019-03-23T00:03:05.034Z,22.63
2019-03-23T00:05:36.318Z,24.50
2019-03-23T00:08:10.875Z,18.67
2019-03-23T00:10:41.743Z,20.50
2019-03-23T00:13:12.443Z,20.13
2019-03-23T00:15:43.564Z,20.23
2019-03-23T00:18:13.614Z,21.13
2019-03-23T00:20:45.032Z,13.80
2019-03-23T00:23:16.910Z,16.23
2019-03-23T00:25:48.116Z,25.17
2019-03-23T00:28:21.691Z,17.63
2019-03-23T00:30:52.105Z,25.30
2019-03-23T00:33:23.237Z,20.23
2019-03-23T00:35:56.248Z,16.63
2019-03-23T00:38:26.455Z,18.43
2019-03-23T00:40:58.529Z,19.10
2019-03-23T00:43:30.623Z,22.43
2019-03-23T00:46:00.702Z,17.03
2019-03-23T00:48:31.482Z,19.87
2019-03-23T00:51:02.424Z,24.00
2019-03-23T00:53:36.026Z,14.70
2019-03-23T00:56:07.941Z,20.50
2019-03-23T00:58:38.491Z,22.50
2019-03-23T01:01:09.442Z,18.60
2019-03-23T01:03:40.483Z,20.43
2019-03-23T01:06:12.248Z,18.10
2019-03-23T01:08:43.857Z,18.43
2019-03-23T01:11:14.849Z,18.60
2019-03-23T01:13:45.157Z,21.60
2019-03-23T01:16:16.972Z,16.17
2019-03-23T01:18:50.693Z,18.80
2019-03-23T01:21:21.763Z,19.77
2019-03-23T01:23:52.880Z,22.30
2019-03-23T01:26:26.058Z,16.60
2019-03-23T01:28:56.235Z,17.93
2019-03-23T01:31:27.822Z,21.30
2019-03-23T01:34:01.924Z,17.33
2019-03-23T01:36:34.594Z,21.00
2019-03-23T01:39:05.999Z,20.33
2019-03-23T01:41:37.093Z,22.40
2019-03-23T01:44:07.613Z,26.47
2019-03-23T01:46:39.127Z,22.97
2019-03-23T01:49:13.901Z,21.50
2019-03-23T01:51:43.859Z,23.10
2019-03-23T01:54:17.337Z,22.83
2019-03-23T01:56:48.803Z,21.47
2019-03-23T01:59:20.544Z,27.80
2019-03-23T02:01:54.053Z,24.67
2019-03-23T02:04:24.495Z,20.33
2019-03-23T02:06:55.041Z,18.43
2019-03-23T02:09:30.292Z,19.87
2019-03-23T02:12:02.202Z,15.63
2019-03-23T02:14:34.734Z,18.53
2019-03-23T02:17:06.569Z,16.87
2019-03-23T02:19:37.099Z,20.17
2019-03-23T02:22:07.913Z,18.57
2019-03-23T02:24:38.410Z,23.80
2019-03-23T02:27:09.485Z,20.77
2019-03-23T02:29:39.501Z,19.20
2019-03-23T02:32:10.809Z,15.23
2019-03-23T02:34:41.085Z,20.83
2019-03-23T02:37:12.114Z,16.83
2019-03-23T02:39:43.709Z,15.53
2019-03-23T02:42:16.508Z,20.60
2019-03-23T02:44:47.714Z,17.83
2019-03-23T02:47:17.826Z,20.47
2019-03-23T02:49:48.670Z,23.23
2019-03-23T02:52:19.470Z,20.33
2019-03-23T02:54:50.052Z,19.47
2019-03-23T02:57:21.458Z,23.27
2019-03-23T02:59:52.793Z,17.10
2019-03-23T03:02:24.205Z,16.50
2019-03-23T03:04:54.727Z,21.27
2019-03-23T03:07:40.773Z,17.03
2019-03-23T03:09:58.975Z,20.07
2019-03-23T03:12:30.261Z,19.83
2019-03-23T03:15:03.153Z,26.43
2019-03-23T03:17:34.481Z,16.20
2019-03-23T03:20:06.931Z,23.87
2019-03-23T03:22:38.091Z,24.47
2019-03-23T03:25:09.163Z,18.90
2019-03-23T03:27:40.452Z,28.47
2019-03-23T03:30:12.939Z,19.83
2019-03-23T03:32:43.408Z,19.47
2019-03-23T03:35:14.598Z,22.43
2019-03-23T03:37:56.554Z,21.13
2019-03-23T03:40:19.669Z,19.43
2019-03-23T03:42:50.330Z,21.17
2019-03-23T03:45:25.718Z,21.13
2019-03-23T03:47:56.250Z,22.83
2019-03-23T03:50:26.547Z,21.03
2019-03-23T03:52:56.621Z,19.13
2019-03-23T03:55:26.743Z,18.47
2019-03-23T03:57:56.738Z,21.10
2019-03-23T04:00:26.840Z,15.43
2019-03-23T04:02:57.068Z,22.90
2019-03-23T04:05:27.165Z,19.80
2019-03-23T04:08:10.470Z,23.40
2019-03-23T04:10:29.145Z,25.00
2019-03-23T04:12:59.688Z,23.23
2019-03-23T04:15:29.899Z,20.13
2019-03-23T04:18:00.247Z,26.53
2019-03-23T04:20:30.433Z,20.47
2019-03-23T04:23:00.624Z,21.30
2019-03-23T04:25:30.701Z,19.07
2019-03-23T04:28:01.135Z,18.77
2019-03-23T04:30:33.225Z,27.97
2019-03-23T04:33:03.269Z,16.80
2019-03-23T04:35:36.424Z,24.27
2019-03-23T04:38:06.603Z,23.73
2019-03-23T04:40:36.708Z,24.43
2019-03-23T04:43:06.866Z,25.83
2019-03-23T04:45:39.732Z,20.80
2019-03-23T04:48:09.822Z,24.43
2019-03-23T04:50:39.983Z,21.43
2019-03-23T04:53:10.300Z,23.57
2019-03-23T04:55:44.279Z,21.97
2019-03-23T04:58:14.358Z,21.13
2019-03-23T05:00:44.598Z,22.67
2019-03-23T05:03:14.731Z,27.40
2019-03-23T05:05:44.861Z,27.53
2019-03-23T05:08:14.943Z,22.93
2019-03-23T05:10:45.171Z,31.17
2019-03-23T05:13:15.356Z,32.20
2019-03-23T05:15:45.397Z,37.53
2019-03-23T05:18:15.526Z,27.83
2019-03-23T05:20:45.827Z,31.93
2019-03-23T05:23:16.008Z,40.50
2019-03-23T05:25:46.014Z,55.10
2019-03-23T05:28:16.250Z,52.10
2019-03-23T05:30:46.620Z,58.03
2019-03-23T05:33:16.804Z,37.47
2019-03-23T05:35:47.140Z,35.50
2019-03-23T05:38:17.431Z,58.10
2019-03-23T05:40:47.708Z,42.43
2019-03-23T05:43:17.972Z,42.53
2019-03-23T05:45:50.259Z,48.73
2019-03-23T05:48:20.612Z,39.47
2019-03-23T05:50:50.792Z,41.73
2019-03-23T05:53:20.980Z,45.53
2019-03-23T05:55:51.236Z,38.13
2019-03-23T05:58:21.504Z,33.03
2019-03-23T06:00:54.549Z,39.30
2019-03-23T06:03:25.470Z,39.63
2019-03-23T06:05:58.541Z,37.33
2019-03-23T06:08:28.709Z,40.30
2019-03-23T06:10:58.993Z,48.93
2019-03-23T06:13:30.254Z,46.47
2019-03-23T06:16:00.945Z,46.17
2019-03-23T06:18:31.113Z,34.50
2019-03-23T06:21:01.246Z,37.83
2019-03-23T06:23:31.321Z,36.93
2019-03-23T06:26:02.068Z,31.87
2019-03-23T06:28:32.200Z,35.97
2019-03-23T06:31:03.735Z,28.63
2019-03-23T06:33:34.327Z,36.10
2019-03-23T06:36:04.600Z,25.03
2019-03-23T06:38:37.231Z,18.73
2019-03-23T06:41:07.343Z,22.33
2019-03-23T06:43:37.626Z,26.93
2019-03-23T06:46:07.822Z,23.23
2019-03-23T06:48:37.854Z,24.07
2019-03-23T06:51:07.934Z,21.63
2019-03-23T06:53:38.136Z,23.10
2019-03-23T06:56:09.131Z,25.13
2019-03-23T06:58:39.303Z,24.27
2019-03-23T07:01:09.926Z,23.90
2019-03-23T07:03:40.103Z,21.83
2019-03-23T07:06:10.346Z,24.77
2019-03-23T07:08:40.529Z,26.77
2019-03-23T07:11:10.850Z,23.97
2019-03-23T07:13:41.680Z,25.43
2019-03-23T07:16:13.114Z,24.37
2019-03-23T07:18:43.185Z,23.37
2019-03-23T07:21:13.204Z,28.47
2019-03-23T07:23:43.289Z,22.30
2019-03-23T07:26:13.748Z,26.73
2019-03-23T07:28:44.814Z,25.90
2019-03-23T07:31:15.068Z,24.80
2019-03-23T07:33:47.544Z,22.07
2019-03-23T07:36:18.240Z,21.90
2019-03-23T07:38:50.589Z,21.03
2019-03-23T07:41:24.210Z,21.47
2019-03-23T07:43:54.348Z,24.13
2019-03-23T07:46:25.614Z,25.73
2019-03-23T07:48:55.985Z,25.33
2019-03-23T07:51:28.423Z,26.37
2019-03-23T07:54:02.806Z,22.37
2019-03-23T07:56:35.215Z,22.67
2019-03-23T07:59:05.370Z,17.50
2019-03-23T08:01:35.820Z,23.00
2019-03-23T08:04:06.045Z,27.60
2019-03-23T08:06:36.271Z,22.90
2019-03-23T08:09:07.808Z,20.43
2019-03-23T08:11:37.782Z,24.23
2019-03-23T08:14:08.029Z,42.50
2019-03-23T08:16:38.449Z,25.23
2019-03-23T08:19:12.553Z,25.43
2019-03-23T08:21:42.825Z,21.57
2019-03-23T08:24:12.923Z,21.80
2019-03-23T08:26:43.018Z,22.93
2019-03-23T08:29:13.207Z,21.30
2019-03-23T08:31:43.685Z,24.00
2019-03-23T08:34:13.885Z,19.93
2019-03-23T08:36:44.400Z,17.40
2019-03-23T08:39:14.701Z,21.50
2019-03-23T08:41:44.781Z,20.27
2019-03-23T08:44:17.395Z,21.67
2019-03-23T08:46:47.604Z,22.87
2019-03-23T08:49:19.257Z,20.30
2019-03-23T08:51:49.554Z,15.60
2019-03-23T08:54:19.700Z,15.33
2019-03-23T08:56:49.912Z,18.00
2019-03-23T08:59:21.818Z,19.17
2019-03-23T09:01:51.971Z,14.07
2019-03-23T09:04:23.098Z,17.90
2019-03-23T09:06:53.686Z,18.13
2019-03-23T09:09:24.030Z,13.07
2019-03-23T09:11:54.265Z,14.87
2019-03-23T09:14:24.519Z,11.63
2019-03-23T09:16:54.622Z,11.27
2019-03-23T09:19:25.147Z,13.60
2019-03-23T09:21:55.706Z,12.83
2019-03-23T09:24:26.345Z,17.53
2019-03-23T09:26:56.756Z,10.53
2019-03-23T09:29:27.040Z,20.87
2019-03-23T09:31:57.338Z,9.27
2019-03-23T09:34:29.849Z,15.47
2019-03-23T09:37:00.090Z,11.40
2019-03-23T09:39:31.223Z,11.00
2019-03-23T09:42:01.417Z,12.50
2019-03-23T09:44:31.546Z,7.13
2019-03-23T09:47:02.141Z,8.13
2019-03-23T09:49:32.364Z,13.53
2019-03-23T09:52:02.573Z,6.50
2019-03-23T09:54:34.293Z,5.03
2019-03-23T09:57:05.145Z,12.43
2019-03-23T09:59:35.197Z,6.77
2019-03-23T10:02:05.576Z,7.63
2019-03-23T10:04:36.043Z,5.87
2019-03-23T10:07:06.507Z,5.63
2019-03-23T10:09:36.741Z,8.43
2019-03-23T10:12:09.109Z,5.50
2019-03-23T10:14:39.246Z,7.00
2019-03-23T10:17:09.505Z,4.87
2019-03-23T10:19:41.787Z,5.00
2019-03-23T10:22:12.018Z,6.80
2019-03-23T10:24:42.235Z,6.30
2019-03-23T10:27:13.127Z,7.23
2019-03-23T10:29:43.806Z,10.27
2019-03-23T10:32:14.085Z,7.00
2019-03-23T10:34:44.317Z,6.53
2019-03-23T10:37:14.601Z,9.97
2019-03-23T10:39:46.875Z,5.90
2019-03-23T10:42:17.430Z,6.40
2019-03-23T10:44:47.640Z,5.23
2019-03-23T10:47:17.798Z,6.77
2019-03-23T10:49:47.860Z,6.87
2019-03-23T10:52:23.720Z,6.80
2019-03-23T10:54:54.468Z,6.60
2019-03-23T10:57:24.673Z,11.83
2019-03-23T10:59:54.880Z,8.67
2019-03-23T11:02:25.026Z,6.93
2019-03-23T11:04:55.063Z,8.70
2019-03-23T11:07:25.308Z,9.93
2019-03-23T11:09:55.511Z,8.73
2019-03-23T11:12:26.238Z,8.77
2019-03-23T11:14:57.100Z,15.93
2019-03-23T11:17:27.669Z,10.07
2019-03-23T11:20:00.039Z,11.27
2019-03-23T11:22:30.224Z,8.03
2019-03-23T11:25:00.446Z,8.77
2019-03-23T11:27:30.623Z,11.00
2019-03-23T11:30:00.733Z,15.00
2019-03-23T11:32:30.930Z,10.10
2019-03-23T11:35:01.052Z,13.80
2019-03-23T11:37:31.491Z,16.57
2019-03-23T11:40:01.631Z,13.80
2019-03-23T11:42:31.823Z,15.53
2019-03-23T11:45:02.162Z,14.53
2019-03-23T11:47:32.396Z,11.10
2019-03-23T11:50:02.625Z,11.43
2019-03-23T11:52:32.885Z,12.10
2019-03-23T11:55:03.110Z,12.90
2019-03-23T11:57:33.602Z,13.97
2019-03-23T12:00:03.751Z,12.20
2019-03-23T12:02:34.118Z,17.83
2019-03-23T12:05:05.060Z,10.77
2019-03-23T12:07:35.280Z,11.13
2019-03-23T12:10:07.352Z,11.70
2019-03-23T12:12:38.021Z,16.90
2019-03-23T12:15:08.848Z,17.73
2019-03-23T12:17:39.160Z,11.23
2019-03-23T12:20:11.162Z,14.93
2019-03-23T12:22:42.029Z,13.20
2019-03-23T12:25:14.596Z,15.50
2019-03-23T12:27:44.846Z,13.67
2019-03-23T12:30:16.714Z,16.67
2019-03-23T12:32:46.971Z,17.17
2019-03-23T12:35:17.423Z,11.07
2019-03-23T12:37:47.750Z,14.17
2019-03-23T12:40:19.979Z,13.77
2019-03-23T12:42:50.876Z,13.30
2019-03-23T12:45:20.984Z,13.47
2019-03-23T12:47:51.901Z,16.50
2019-03-23T12:50:22.078Z,14.07
2019-03-23T12:52:52.196Z,9.40
2019-03-23T12:55:24.639Z,11.63
2019-03-23T12:57:55.140Z,14.50
2019-03-23T13:00:25.302Z,13.87
2019-03-23T13:02:56.485Z,12.00
2019-03-23T13:05:26.658Z,12.43
2019-03-23T13:07:58.326Z,11.57
2019-03-23T13:10:32.210Z,20.47
2019-03-23T13:13:03.136Z,15.80
2019-03-23T13:15:34.506Z,10.90
2019-03-23T13:18:04.685Z,16.50
2019-03-23T13:20:36.453Z,17.83
2019-03-23T13:23:06.937Z,12.00
2019-03-23T13:25:37.161Z,12.70
2019-03-23T13:28:07.390Z,11.40
2019-03-23T13:30:39.294Z,11.27
2019-03-23T13:33:10.128Z,10.80
2019-03-23T13:35:40.198Z,13.20
2019-03-23T13:38:10.536Z,11.00
2019-03-23T13:40:40.665Z,13.17
2019-03-23T13:43:11.736Z,10.60
2019-03-23T13:45:42.834Z,14.90
2019-03-23T13:48:13.794Z,12.23
2019-03-23T13:50:45.887Z,13.57
2019-03-23T13:53:16.249Z,10.33
2019-03-23T13:55:46.278Z,10.83
2019-03-23T13:58:16.668Z,13.20
2019-03-23T14:00:48.225Z,10.77
2019-03-23T14:03:19.657Z,10.13
2019-03-23T14:05:50.048Z,7.57
2019-03-23T14:08:22.237Z,6.83
2019-03-23T14:10:52.432Z,18.07
2019-03-23T14:13:24.098Z,9.67
2019-03-23T14:15:55.498Z,9.03
2019-03-23T14:18:26.256Z,11.87
2019-03-23T14:20:56.646Z,8.50
2019-03-23T14:23:29.292Z,11.03
2019-03-23T14:26:00.977Z,9.80
2019-03-23T14:28:31.510Z,5.40
2019-03-23T14:31:02.916Z,8.20
2019-03-23T14:33:33.192Z,5.67
2019-03-23T14:36:03.597Z,7.43
2019-03-23T14:38:36.355Z,8.80
2019-03-23T14:41:06.612Z,8.83
2019-03-23T14:43:36.984Z,6.33
2019-03-23T14:46:10.600Z,8.83
2019-03-23T14:48:42.606Z,6.73
2019-03-23T14:51:16.101Z,8.53
2019-03-23T14:53:46.722Z,5.83
2019-03-23T14:56:17.135Z,12.03
2019-03-23T14:58:47.590Z,6.33
2019-03-23T15:01:17.707Z,13.27
2019-03-23T15:03:48.072Z,9.17
2019-03-23T15:06:18.131Z,7.17
2019-03-23T15:08:50.378Z,5.50
2019-03-23T15:11:20.553Z,9.67
2019-03-23T15:13:51.503Z,8.23
2019-03-23T15:16:22.036Z,8.40
2019-03-23T15:18:52.652Z,7.83
2019-03-23T15:21:23.340Z,15.87
2019-03-23T15:23:53.864Z,9.10
2019-03-23T15:26:24.209Z,8.63
2019-03-23T15:28:54.938Z,10.93
2019-03-23T15:31:26.760Z,9.13
2019-03-23T15:33:57.023Z,9.43
2019-03-23T15:36:27.273Z,16.13
2019-03-23T15:38:57.830Z,18.87
2019-03-23T15:41:28.005Z,10.43
2019-03-23T15:43:58.049Z,15.70
2019-03-23T15:46:28.383Z,17.57
2019-03-23T15:48:58.770Z,12.10
2019-03-23T15:51:29.306Z,11.97
2019-03-23T15:54:01.948Z,18.70
2019-03-23T15:56:32.467Z,10.17
2019-03-23T15:59:05.196Z,7.20
2019-03-23T16:01:37.099Z,13.70
2019-03-23T16:04:07.634Z,13.97
2019-03-23T16:06:38.805Z,13.87
2019-03-23T16:09:09.449Z,15.03
2019-03-23T16:11:41.529Z,14.57
2019-03-23T16:14:12.724Z,10.37
2019-03-23T16:16:42.924Z,11.97
2019-03-23T16:19:13.490Z,11.60
2019-03-23T16:21:43.837Z,11.43
2019-03-23T16:24:14.287Z,8.30
2019-03-23T16:26:44.500Z,15.90
2019-03-23T16:29:14.776Z,19.47
2019-03-23T16:31:45.067Z,21.40
2019-03-23T16:34:15.140Z,27.97
2019-03-23T16:36:45.373Z,22.87
2019-03-23T16:39:15.796Z,16.77
2019-03-23T16:41:46.152Z,26.53
2019-03-23T16:44:16.465Z,21.70
2019-03-23T16:46:46.683Z,22.13
2019-03-23T16:49:17.501Z,17.03
2019-03-23T16:51:47.881Z,16.73
2019-03-23T16:54:18.021Z,20.67
2019-03-23T16:56:48.196Z,31.43
2019-03-23T16:59:18.490Z,24.10
2019-03-23T17:01:49.168Z,44.57
2019-03-23T17:04:21.302Z,24.00
2019-03-23T17:06:52.649Z,24.60
2019-03-23T17:09:26.374Z,15.97
2019-03-23T17:11:56.818Z,15.20
2019-03-23T17:14:27.043Z,21.10
2019-03-23T17:17:00.382Z,22.40
2019-03-23T17:19:31.117Z,18.17
2019-03-23T17:22:04.075Z,16.20
2019-03-23T17:24:34.140Z,17.30
2019-03-23T17:27:04.786Z,40.13
2019-03-23T17:29:35.208Z,29.53
2019-03-23T17:32:06.052Z,32.07
2019-03-23T17:34:36.260Z,23.90
2019-03-23T17:37:06.884Z,26.60
2019-03-23T17:39:37.225Z,35.37
2019-03-23T17:42:07.409Z,35.80
2019-03-23T17:44:37.571Z,56.97
2019-03-23T17:47:07.817Z,56.27
2019-03-23T17:49:38.170Z,62.37
2019-03-23T17:52:08.509Z,59.57
2019-03-23T17:54:38.833Z,53.50
2019-03-23T17:57:09.232Z,42.97
2019-03-23T17:59:39.460Z,52.73
2019-03-23T18:02:09.641Z,35.93
2019-03-23T18:04:39.845Z,33.23
2019-03-23T18:07:10.007Z,37.30
2019-03-23T18:09:40.225Z,49.40
2019-03-23T18:12:10.488Z,37.50
2019-03-23T18:14:40.805Z,36.83
2019-03-23T18:17:11.055Z,26.73
2019-03-23T18:19:41.243Z,48.03
2019-03-23T18:22:11.575Z,131.80
2019-03-23T18:24:41.806Z,61.70
2019-03-23T18:27:11.817Z,59.63
2019-03-23T18:29:41.988Z,76.23
2019-03-23T18:32:12.305Z,81.77
2019-03-23T18:34:42.665Z,89.20
2019-03-23T18:37:12.868Z,57.13
2019-03-23T18:39:43.006Z,38.20
2019-03-23T18:42:13.263Z,41.23
2019-03-23T18:44:43.536Z,36.83
2019-03-23T18:47:14.083Z,30.57
2019-03-23T18:49:44.380Z,24.40
2019-03-23T18:52:14.513Z,27.13
2019-03-23T18:54:44.593Z,28.63
2019-03-23T18:57:14.912Z,29.20
2019-03-23T18:59:45.036Z,37.40
2019-03-23T19:02:15.221Z,35.93
2019-03-23T19:04:45.473Z,31.73
2019-03-23T19:07:15.641Z,29.80
2019-03-23T19:09:45.780Z,32.43
2019-03-23T19:12:15.961Z,31.90
2019-03-23T19:14:46.189Z,35.50
2019-03-23T19:17:16.590Z,29.20
2019-03-23T19:19:48.513Z,31.57
2019-03-23T19:22:18.865Z,32.67
2019-03-23T19:24:49.072Z,31.77
2019-03-23T19:27:19.412Z,32.63
2019-03-23T19:29:49.624Z,30.40
2019-03-23T19:32:19.924Z,32.67
2019-03-23T19:34:50.147Z,42.13
2019-03-23T19:37:20.221Z,38.73
2019-03-23T19:39:50.430Z,39.70
2019-03-23T19:42:20.606Z,43.13
2019-03-23T19:44:50.777Z,47.83
2019-03-23T19:47:21.103Z,39.10
2019-03-23T19:49:51.279Z,51.63
2019-03-23T19:52:21.602Z,33.73
2019-03-23T19:54:51.859Z,28.27
2019-03-23T19:57:21.933Z,30.63
2019-03-23T19:59:52.161Z,26.57
2019-03-23T20:02:22.360Z,25.00
2019-03-23T20:04:52.544Z,31.53
2019-03-23T20:07:32.723Z,29.67
2019-03-23T20:09:57.053Z,28.03
2019-03-23T20:12:27.319Z,25.17
2019-03-23T20:14:57.539Z,21.83
2019-03-23T20:17:27.792Z,23.07
2019-03-23T20:19:57.867Z,22.97
2019-03-23T20:22:27.908Z,21.47
2019-03-23T20:24:57.966Z,30.63
2019-03-23T20:27:28.123Z,26.90
2019-03-23T20:29:58.262Z,22.00
2019-03-23T20:32:28.361Z,24.90
2019-03-23T20:34:58.638Z,23.13
2019-03-23T20:37:29.556Z,20.33
2019-03-23T20:39:59.733Z,19.77
2019-03-23T20:42:29.993Z,18.40
2019-03-23T20:45:00.310Z,20.97
2019-03-23T20:47:30.411Z,19.53
2019-03-23T20:50:00.553Z,26.90
2019-03-23T20:52:30.615Z,18.47
2019-03-23T20:55:00.791Z,24.27
2019-03-23T20:57:37.446Z,24.13
2019-03-23T21:00:03.073Z,25.73
2019-03-23T21:02:33.368Z,20.40
2019-03-23T21:05:03.700Z,31.33
2019-03-23T21:07:33.784Z,23.93
2019-03-23T21:10:04.091Z,20.73
2019-03-23T21:12:34.159Z,21.30
2019-03-23T21:15:04.360Z,22.90
2019-03-23T21:17:34.590Z,19.27
2019-03-23T21:20:06.438Z,23.03
2019-03-23T21:22:36.660Z,19.00
2019-03-23T21:25:07.433Z,18.70
2019-03-23T21:27:37.712Z,21.07
2019-03-23T21:30:09.938Z,21.70
2019-03-23T21:32:40.078Z,21.50
2019-03-23T21:35:10.465Z,21.97
2019-03-23T21:37:40.797Z,23.90
2019-03-23T21:40:11.994Z,22.43
2019-03-23T21:42:42.198Z,24.57
2019-03-23T21:45:12.574Z,18.57
2019-03-23T21:47:42.773Z,22.33
2019-03-23T21:50:13.349Z,20.90
2019-03-23T21:52:43.496Z,23.80
2019-03-23T21:55:14.810Z,20.43
2019-03-23T21:57:44.906Z,22.10
2019-03-23T22:00:19.752Z,22.83
2019-03-23T22:02:50.034Z,25.73
2019-03-23T22:05:20.182Z,24.43
2019-03-23T22:07:50.368Z,19.83
2019-03-23T22:10:20.600Z,31.37
2019-03-23T22:12:50.856Z,27.43
2019-03-23T22:15:21.243Z,24.33
2019-03-23T22:17:53.190Z,24.07
2019-03-23T22:20:23.356Z,24.03
2019-03-23T22:22:53.488Z,26.67
2019-03-23T22:25:23.732Z,28.27
2019-03-23T22:27:53.869Z,31.40
2019-03-23T22:30:24.100Z,28.23
2019-03-23T22:32:54.344Z,27.47
2019-03-23T22:35:24.439Z,23.00
2019-03-23T22:37:54.652Z,22.43
2019-03-23T22:40:24.796Z,23.03
2019-03-23T22:42:55.142Z,23.07
2019-03-23T22:45:25.427Z,23.23
2019-03-23T22:47:55.473Z,25.60
2019-03-23T22:50:25.609Z,23.43
2019-03-23T22:52:55.878Z,25.53
2019-03-23T22:55:26.127Z,28.97
2019-03-23T22:57:56.735Z,29.40
2019-03-23T23:00:42.429Z,27.37
2019-03-23T23:03:13.249Z,31.13
2019-03-23T23:05:43.914Z,30.97
2019-03-23T23:08:14.074Z,32.90
2019-03-23T23:10:44.320Z,27.20
2019-03-23T23:13:14.473Z,23.50
2019-03-23T23:15:44.836Z,30.30
2019-03-23T23:18:15.071Z,29.30
2019-03-23T23:20:45.406Z,28.43
2019-03-23T23:23:15.641Z,29.10
2019-03-23T23:25:45.933Z,29.60
2019-03-23T23:28:15.981Z,29.57
2019-03-23T23:30:46.143Z,29.70
2019-03-23T23:33:16.398Z,33.50
2019-03-23T23:35:46.698Z,23.27
2019-03-23T23:38:18.557Z,26.37
2019-03-23T23:40:48.692Z,32.90
2019-03-23T23:43:18.670Z,26.90
2019-03-23T23:45:48.933Z,29.20
2019-03-23T23:48:19.230Z,28.17
2019-03-23T23:50:49.544Z,28.67
2019-03-23T23:53:19.726Z,28.97
2019-03-23T23:55:49.922Z,28.17
2019-03-23T23:58:20.062Z,29.63
